sensor_id;sensor_type;location;lat;lon;timestamp;pressure;altitude;pressure_sealevel;temperature;humidity
23574;BME280;11965;53.640;10.050;2023-09-12T00:01:23;101041.81;;;18.87;100.00
23574;BME280;11965;53.640;10.050;2023-09-12T00:03:50;101051.56;;;19.08;100.00
23574;BME280;11965;53.640;10.050;2023-09-12T00:06:17;101069.84;;;19.34;100.00
23574;BME280;11965;53.640;10.050;2023-09-12T00:08:43;101060.66;;;19.39;100.00
23574;BME280;11965;53.640;10.050;2023-09-12T00:11:12;101069.59;;;19.36;100.00
23574;BME280;11965;53.640;10.050;2023-09-12T00:13:40;101064.91;;;19.53;100.00
23574;BME280;11965;53.640;10.050;2023-09-12T00:16:08;101067.91;;;19.63;100.00
23574;BME280;11965;53.640;10.050;2023-09-12T00:18:36;101067.31;;;19.61;100.00
23574;BME280;11965;53.640;10.050;2023-09-12T00:21:03;101067.06;;;19.63;100.00
23574;BME280;11965;53.640;10.050;2023-09-12T00:23:30;101059.97;;;19.60;100.00
23574;BME280;11965;53.640;10.050;2023-09-12T00:25:57;101054.25;;;19.67;100.00
23574;BME280;11965;53.640;10.050;2023-09-12T00:28:25;101053.00;;;19.63;100.00
23574;BME280;11965;53.640;10.050;2023-09-12T00:30:53;101054.38;;;19.72;100.00
23574;BME280;11965;53.640;10.050;2023-09-12T00:33:20;101059.72;;;19.74;100.00
23574;BME280;11965;53.640;10.050;2023-09-12T00:35:46;101061.53;;;19.80;100.00
23574;BME280;11965;53.640;10.050;2023-09-12T00:38:13;101060.56;;;19.74;100.00
23574;BME280;11965;53.640;10.050;2023-09-12T00:40:40;101066.19;;;19.74;100.00
23574;BME280;11965;53.640;10.050;2023-09-12T00:43:07;101046.75;;;19.61;100.00
23574;BME280;11965;53.640;10.050;2023-09-12T00:45:36;101042.38;;;19.65;100.00
23574;BME280;11965;53.640;10.050;2023-09-12T00:48:04;101036.41;;;19.50;100.00
23574;BME280;11965;53.640;10.050;2023-09-12T00:50:33;101035.19;;;19.57;100.00
23574;BME280;11965;53.640;10.050;2023-09-12T00:53:03;101036.69;;;19.48;100.00
23574;BME280;11965;53.640;10.050;2023-09-12T00:55:32;101034.63;;;19.43;100.00
23574;BME280;11965;53.640;10.050;2023-09-12T00:58:02;101049.44;;;19.27;100.00
23574;BME280;11965;53.640;10.050;2023-09-12T01:00:29;101036.97;;;19.35;100.00
23574;BME280;11965;53.640;10.050;2023-09-12T01:02:58;101035.16;;;19.17;100.00
23574;BME280;11965;53.640;10.050;2023-09-12T01:05:25;101035.56;;;19.09;100.00
23574;BME280;11965;53.640;10.050;2023-09-12T01:07:53;101033.63;;;18.97;100.00
23574;BME280;11965;53.640;10.050;2023-09-12T01:10:21;101024.69;;;19.01;100.00
23574;BME280;11965;53.640;10.050;2023-09-12T01:12:48;101014.81;;;18.98;100.00
23574;BME280;11965;53.640;10.050;2023-09-12T01:15:15;101020.19;;;18.88;100.00
23574;BME280;11965;53.640;10.050;2023-09-12T01:17:43;101017.25;;;18.83;100.00
23574;BME280;11965;53.640;10.050;2023-09-12T01:20:16;101013.47;;;18.77;100.00
23574;BME280;11965;53.640;10.050;2023-09-12T01:23:05;101011.13;;;18.74;100.00
23574;BME280;11965;53.640;10.050;2023-09-12T01:26:11;101002.34;;;18.70;100.00
23574;BME280;11965;53.640;10.050;2023-09-12T01:28:45;100994.16;;;18.69;100.00
23574;BME280;11965;53.640;10.050;2023-09-12T01:31:15;100991.22;;;18.64;100.00
23574;BME280;11965;53.640;10.050;2023-09-12T01:33:43;100988.31;;;18.59;100.00
23574;BME280;11965;53.640;10.050;2023-09-12T01:36:10;100981.50;;;18.54;100.00
23574;BME280;11965;53.640;10.050;2023-09-12T01:38:37;100973.78;;;18.50;100.00
23574;BME280;11965;53.640;10.050;2023-09-12T01:41:06;100970.63;;;18.46;100.00
23574;BME280;11965;53.640;10.050;2023-09-12T01:43:36;100974.91;;;18.49;100.00
23574;BME280;11965;53.640;10.050;2023-09-12T01:46:06;100957.31;;;18.53;100.00
23574;BME280;11965;53.640;10.050;2023-09-12T01:48:36;100965.50;;;18.55;100.00
23574;BME280;11965;53.640;10.050;2023-09-12T01:51:05;100965.72;;;18.53;100.00
23574;BME280;11965;53.640;10.050;2023-09-12T01:53:33;100958.41;;;18.52;100.00
23574;BME280;11965;53.640;10.050;2023-09-12T01:56:01;100955.25;;;18.49;100.00
23574;BME280;11965;53.640;10.050;2023-09-12T01:58:29;100949.03;;;18.47;100.00
23574;BME280;11965;53.640;10.050;2023-09-12T02:00:57;100957.78;;;18.50;100.00
23574;BME280;11965;53.640;10.050;2023-09-12T02:03:25;100979.66;;;18.84;100.00
23574;BME280;11965;53.640;10.050;2023-09-12T02:05:52;100987.78;;;19.09;100.00
23574;BME280;11965;53.640;10.050;2023-09-12T02:08:18;100996.44;;;19.19;100.00
23574;BME280;11965;53.640;10.050;2023-09-12T02:10:44;101005.25;;;19.11;100.00
23574;BME280;11965;53.640;10.050;2023-09-12T02:13:11;101007.72;;;18.95;100.00
23574;BME280;11965;53.640;10.050;2023-09-12T02:15:38;101021.84;;;19.12;100.00
23574;BME280;11965;53.640;10.050;2023-09-12T02:18:05;101014.75;;;19.22;100.00
23574;BME280;11965;53.640;10.050;2023-09-12T02:20:38;101022.13;;;19.11;100.00
23574;BME280;11965;53.640;10.050;2023-09-12T02:23:05;101022.59;;;19.19;100.00
23574;BME280;11965;53.640;10.050;2023-09-12T02:25:32;101033.09;;;19.12;100.00
23574;BME280;11965;53.640;10.050;2023-09-12T02:27:59;101023.69;;;19.07;100.00
23574;BME280;11965;53.640;10.050;2023-09-12T02:30:26;101020.91;;;18.95;100.00
23574;BME280;11965;53.640;10.050;2023-09-12T02:32:52;101030.69;;;18.92;100.00
23574;BME280;11965;53.640;10.050;2023-09-12T02:35:19;101047.28;;;19.06;100.00
23574;BME280;11965;53.640;10.050;2023-09-12T02:37:47;101046.31;;;18.88;100.00
23574;BME280;11965;53.640;10.050;2023-09-12T02:40:14;101040.00;;;18.81;100.00
23574;BME280;11965;53.640;10.050;2023-09-12T02:42:43;101029.72;;;18.75;100.00
23574;BME280;11965;53.640;10.050;2023-09-12T02:45:10;101037.06;;;18.76;100.00
23574;BME280;11965;53.640;10.050;2023-09-12T02:47:37;101049.00;;;18.83;100.00
23574;BME280;11965;53.640;10.050;2023-09-12T02:50:04;101044.63;;;18.87;100.00
23574;BME280;11965;53.640;10.050;2023-09-12T02:52:31;101052.63;;;19.07;100.00
23574;BME280;11965;53.640;10.050;2023-09-12T02:54:59;101042.66;;;19.00;100.00
23574;BME280;11965;53.640;10.050;2023-09-12T02:57:26;101057.94;;;18.92;100.00
23574;BME280;11965;53.640;10.050;2023-09-12T02:59:53;101052.41;;;18.85;100.00
23574;BME280;11965;53.640;10.050;2023-09-12T03:02:20;101060.00;;;18.85;100.00
23574;BME280;11965;53.640;10.050;2023-09-12T03:04:47;101048.91;;;18.78;100.00
23574;BME280;11965;53.640;10.050;2023-09-12T03:07:14;101073.19;;;18.84;100.00
23574;BME280;11965;53.640;10.050;2023-09-12T03:09:40;101078.19;;;18.82;100.00
23574;BME280;11965;53.640;10.050;2023-09-12T03:12:09;101073.06;;;18.91;100.00
23574;BME280;11965;53.640;10.050;2023-09-12T03:14:37;101063.28;;;18.93;100.00
23574;BME280;11965;53.640;10.050;2023-09-12T03:17:04;101055.84;;;18.87;100.00
23574;BME280;11965;53.640;10.050;2023-09-12T03:19:30;101064.75;;;18.96;100.00
23574;BME280;11965;53.640;10.050;2023-09-12T03:21:57;101070.13;;;18.97;100.00
23574;BME280;11965;53.640;10.050;2023-09-12T03:24:24;101056.06;;;18.86;100.00
23574;BME280;11965;53.640;10.050;2023-09-12T03:26:52;101073.56;;;19.00;100.00
23574;BME280;11965;53.640;10.050;2023-09-12T03:29:20;101064.38;;;19.16;100.00
23574;BME280;11965;53.640;10.050;2023-09-12T03:31:48;101060.84;;;18.97;100.00
23574;BME280;11965;53.640;10.050;2023-09-12T03:34:15;101058.88;;;18.86;100.00
23574;BME280;11965;53.640;10.050;2023-09-12T03:36:42;101046.78;;;18.73;100.00
23574;BME280;11965;53.640;10.050;2023-09-12T03:39:08;101049.97;;;18.65;100.00
23574;BME280;11965;53.640;10.050;2023-09-12T03:41:38;101046.91;;;18.55;100.00
23574;BME280;11965;53.640;10.050;2023-09-12T03:44:05;101058.13;;;18.55;100.00
23574;BME280;11965;53.640;10.050;2023-09-12T03:46:33;101065.31;;;18.51;100.00
23574;BME280;11965;53.640;10.050;2023-09-12T03:49:00;101059.34;;;18.47;100.00
23574;BME280;11965;53.640;10.050;2023-09-12T03:51:27;101053.09;;;18.45;100.00
23574;BME280;11965;53.640;10.050;2023-09-12T03:53:54;101046.91;;;18.43;100.00
23574;BME280;11965;53.640;10.050;2023-09-12T03:56:21;101046.00;;;18.43;100.00
23574;BME280;11965;53.640;10.050;2023-09-12T03:58:48;101046.00;;;18.43;100.00
23574;BME280;11965;53.640;10.050;2023-09-12T04:01:15;101051.63;;;18.43;100.00
23574;BME280;11965;53.640;10.050;2023-09-12T04:03:43;101065.94;;;18.41;100.00
23574;BME280;11965;53.640;10.050;2023-09-12T04:06:13;101058.00;;;18.38;100.00
23574;BME280;11965;53.640;10.050;2023-09-12T04:08:40;101052.25;;;18.33;100.00
23574;BME280;11965;53.640;10.050;2023-09-12T04:11:07;101056.03;;;18.39;100.00
23574;BME280;11965;53.640;10.050;2023-09-12T04:13:36;101054.84;;;18.46;100.00
23574;BME280;11965;53.640;10.050;2023-09-12T04:16:03;101046.75;;;18.38;100.00
23574;BME280;11965;53.640;10.050;2023-09-12T04:18:30;101036.63;;;18.37;100.00
23574;BME280;11965;53.640;10.050;2023-09-12T04:20:58;101021.38;;;18.33;100.00
23574;BME280;11965;53.640;10.050;2023-09-12T04:23:25;101012.97;;;18.33;100.00
23574;BME280;11965;53.640;10.050;2023-09-12T04:25:52;101012.72;;;18.46;100.00
23574;BME280;11965;53.640;10.050;2023-09-12T04:28:19;101015.88;;;18.62;100.00
23574;BME280;11965;53.640;10.050;2023-09-12T04:30:46;101016.88;;;18.55;100.00
23574;BME280;11965;53.640;10.050;2023-09-12T04:33:14;101013.34;;;18.48;100.00
23574;BME280;11965;53.640;10.050;2023-09-12T04:35:41;101016.75;;;18.39;100.00
23574;BME280;11965;53.640;10.050;2023-09-12T04:38:09;101017.94;;;18.31;100.00
23574;BME280;11965;53.640;10.050;2023-09-12T04:40:36;101024.06;;;18.40;100.00
23574;BME280;11965;53.640;10.050;2023-09-12T04:43:05;101017.94;;;18.43;100.00
23574;BME280;11965;53.640;10.050;2023-09-12T04:45:33;101017.47;;;18.34;100.00
23574;BME280;11965;53.640;10.050;2023-09-12T04:48:00;101014.66;;;18.34;100.00
23574;BME280;11965;53.640;10.050;2023-09-12T04:50:28;101011.00;;;18.33;100.00
23574;BME280;11965;53.640;10.050;2023-09-12T04:52:54;101010.03;;;18.28;100.00
23574;BME280;11965;53.640;10.050;2023-09-12T04:55:22;101014.91;;;18.32;100.00
23574;BME280;11965;53.640;10.050;2023-09-12T04:57:49;101002.44;;;18.28;100.00
23574;BME280;11965;53.640;10.050;2023-09-12T05:00:16;101009.66;;;18.24;100.00
23574;BME280;11965;53.640;10.050;2023-09-12T05:02:43;101007.09;;;18.23;100.00
23574;BME280;11965;53.640;10.050;2023-09-12T05:05:10;101008.06;;;18.28;100.00
23574;BME280;11965;53.640;10.050;2023-09-12T05:07:37;101001.59;;;18.28;100.00
23574;BME280;11965;53.640;10.050;2023-09-12T05:10:04;101009.31;;;18.32;100.00
23574;BME280;11965;53.640;10.050;2023-09-12T05:12:33;101025.88;;;18.34;100.00
23574;BME280;11965;53.640;10.050;2023-09-12T05:15:00;101026.16;;;18.32;100.00
23574;BME280;11965;53.640;10.050;2023-09-12T05:17:27;101038.47;;;18.43;100.00
23574;BME280;11965;53.640;10.050;2023-09-12T05:19:54;101042.38;;;18.42;100.00
23574;BME280;11965;53.640;10.050;2023-09-12T05:22:21;101042.13;;;18.44;100.00
23574;BME280;11965;53.640;10.050;2023-09-12T05:24:47;101035.91;;;18.42;100.00
23574;BME280;11965;53.640;10.050;2023-09-12T05:27:15;101035.53;;;18.38;100.00
23574;BME280;11965;53.640;10.050;2023-09-12T05:29:43;101039.44;;;18.37;100.00
23574;BME280;11965;53.640;10.050;2023-09-12T05:32:10;101041.38;;;18.37;100.00
23574;BME280;11965;53.640;10.050;2023-09-12T05:34:37;101052.59;;;18.37;100.00
23574;BME280;11965;53.640;10.050;2023-09-12T05:37:04;101070.91;;;18.39;100.00
23574;BME280;11965;53.640;10.050;2023-09-12T05:39:31;101084.72;;;18.41;100.00
23574;BME280;11965;53.640;10.050;2023-09-12T05:41:58;101087.03;;;18.44;100.00
23574;BME280;11965;53.640;10.050;2023-09-12T05:44:24;101081.44;;;18.44;100.00
23574;BME280;11965;53.640;10.050;2023-09-12T05:46:53;101086.78;;;18.45;100.00
23574;BME280;11965;53.640;10.050;2023-09-12T05:49:20;101077.50;;;18.45;100.00
23574;BME280;11965;53.640;10.050;2023-09-12T05:51:47;101080.09;;;18.46;100.00
23574;BME280;11965;53.640;10.050;2023-09-12T05:54:14;101077.03;;;18.48;100.00
23574;BME280;11965;53.640;10.050;2023-09-12T05:56:41;101069.22;;;18.50;100.00
23574;BME280;11965;53.640;10.050;2023-09-12T05:59:08;101070.56;;;18.47;100.00
23574;BME280;11965;53.640;10.050;2023-09-12T06:01:35;101078.25;;;18.52;100.00
23574;BME280;11965;53.640;10.050;2023-09-12T06:04:04;101076.56;;;18.63;100.00
23574;BME280;11965;53.640;10.050;2023-09-12T06:06:31;101045.91;;;18.49;100.00
23574;BME280;11965;53.640;10.050;2023-09-12T06:08:57;101060.81;;;18.50;100.00
23574;BME280;11965;53.640;10.050;2023-09-12T06:11:24;101057.16;;;18.61;100.00
23574;BME280;11965;53.640;10.050;2023-09-12T06:13:51;101057.91;;;18.68;100.00
23574;BME280;11965;53.640;10.050;2023-09-12T06:16:18;101049.13;;;18.65;100.00
23574;BME280;11965;53.640;10.050;2023-09-12T06:18:45;101049.69;;;18.67;100.00
23574;BME280;11965;53.640;10.050;2023-09-12T06:21:15;101056.44;;;18.77;100.00
23574;BME280;11965;53.640;10.050;2023-09-12T06:23:42;101049.13;;;18.76;100.00
23574;BME280;11965;53.640;10.050;2023-09-12T06:26:09;101048.00;;;19.01;100.00
23574;BME280;11965;53.640;10.050;2023-09-12T06:28:36;101057.41;;;19.07;100.00
23574;BME280;11965;53.640;10.050;2023-09-12T06:31:03;101062.53;;;19.10;100.00
23574;BME280;11965;53.640;10.050;2023-09-12T06:33:29;101059.00;;;19.14;100.00
23574;BME280;11965;53.640;10.050;2023-09-12T06:35:56;101054.50;;;19.13;100.00
23574;BME280;11965;53.640;10.050;2023-09-12T06:38:24;101060.00;;;19.08;100.00
23574;BME280;11965;53.640;10.050;2023-09-12T06:40:51;101065.56;;;19.20;100.00
23574;BME280;11965;53.640;10.050;2023-09-12T06:43:18;101073.91;;;19.27;100.00
23574;BME280;11965;53.640;10.050;2023-09-12T06:45:45;101071.47;;;19.07;100.00
23574;BME280;11965;53.640;10.050;2023-09-12T06:48:12;101069.75;;;19.06;100.00
23574;BME280;11965;53.640;10.050;2023-09-12T06:50:39;101081.34;;;19.09;100.00
23574;BME280;11965;53.640;10.050;2023-09-12T06:53:06;101086.38;;;19.19;100.00
23574;BME280;11965;53.640;10.050;2023-09-12T06:55:34;101092.84;;;19.19;100.00
23574;BME280;11965;53.640;10.050;2023-09-12T06:58:01;101094.41;;;19.15;100.00
23574;BME280;11965;53.640;10.050;2023-09-12T07:00:29;101096.13;;;19.28;100.00
23574;BME280;11965;53.640;10.050;2023-09-12T07:02:56;101098.41;;;19.31;100.00
23574;BME280;11965;53.640;10.050;2023-09-12T07:05:23;101103.47;;;19.29;100.00
23574;BME280;11965;53.640;10.050;2023-09-12T07:07:51;101093.41;;;19.33;100.00
23574;BME280;11965;53.640;10.050;2023-09-12T07:10:17;101089.25;;;19.36;100.00
23574;BME280;11965;53.640;10.050;2023-09-12T07:12:46;101085.06;;;19.50;100.00
23574;BME280;11965;53.640;10.050;2023-09-12T07:15:12;101092.25;;;19.58;100.00
23574;BME280;11965;53.640;10.050;2023-09-12T07:17:39;101091.56;;;19.51;100.00
23574;BME280;11965;53.640;10.050;2023-09-12T07:20:07;101083.94;;;19.63;100.00
23574;BME280;11965;53.640;10.050;2023-09-12T07:22:37;101090.16;;;19.65;100.00
23574;BME280;11965;53.640;10.050;2023-09-12T07:25:06;101083.34;;;19.73;100.00
23574;BME280;11965;53.640;10.050;2023-09-12T07:27:34;101083.47;;;19.66;100.00
23574;BME280;11965;53.640;10.050;2023-09-12T07:30:03;101090.44;;;19.52;100.00
23574;BME280;11965;53.640;10.050;2023-09-12T07:32:30;101093.50;;;19.50;100.00
23574;BME280;11965;53.640;10.050;2023-09-12T07:34:57;101107.19;;;19.70;100.00
23574;BME280;11965;53.640;10.050;2023-09-12T07:37:24;101101.28;;;19.83;100.00
23574;BME280;11965;53.640;10.050;2023-09-12T07:39:50;101099.72;;;19.64;100.00
23574;BME280;11965;53.640;10.050;2023-09-12T07:42:22;101093.44;;;19.85;100.00
23574;BME280;11965;53.640;10.050;2023-09-12T07:44:49;101082.53;;;19.89;100.00
23574;BME280;11965;53.640;10.050;2023-09-12T07:47:17;101079.09;;;19.87;100.00
23574;BME280;11965;53.640;10.050;2023-09-12T07:49:44;101066.91;;;20.10;100.00
23574;BME280;11965;53.640;10.050;2023-09-12T07:52:11;101067.22;;;19.97;100.00
23574;BME280;11965;53.640;10.050;2023-09-12T07:54:38;101060.78;;;19.84;100.00
23574;BME280;11965;53.640;10.050;2023-09-12T07:57:05;101076.75;;;19.96;100.00
23574;BME280;11965;53.640;10.050;2023-09-12T07:59:31;101077.84;;;19.95;100.00
23574;BME280;11965;53.640;10.050;2023-09-12T08:01:58;101089.81;;;19.73;100.00
23574;BME280;11965;53.640;10.050;2023-09-12T08:04:26;101093.38;;;19.97;100.00
23574;BME280;11965;53.640;10.050;2023-09-12T08:06:53;101089.97;;;19.95;100.00
23574;BME280;11965;53.640;10.050;2023-09-12T08:09:20;101089.31;;;20.05;100.00
23574;BME280;11965;53.640;10.050;2023-09-12T08:11:47;101090.03;;;20.29;100.00
23574;BME280;11965;53.640;10.050;2023-09-12T08:14:14;101097.59;;;20.12;100.00
23574;BME280;11965;53.640;10.050;2023-09-12T08:16:41;101103.63;;;20.03;100.00
23574;BME280;11965;53.640;10.050;2023-09-12T08:19:08;101106.72;;;20.02;100.00
23574;BME280;11965;53.640;10.050;2023-09-12T08:21:36;101112.03;;;20.15;100.00
23574;BME280;11965;53.640;10.050;2023-09-12T08:24:03;101119.47;;;20.38;100.00
23574;BME280;11965;53.640;10.050;2023-09-12T08:26:30;101123.13;;;20.39;100.00
23574;BME280;11965;53.640;10.050;2023-09-12T08:28:57;101127.31;;;20.82;100.00
23574;BME280;11965;53.640;10.050;2023-09-12T08:31:24;101121.56;;;21.10;100.00
23574;BME280;11965;53.640;10.050;2023-09-12T08:33:52;101137.88;;;21.08;100.00
23574;BME280;11965;53.640;10.050;2023-09-12T08:36:19;101132.84;;;21.10;100.00
23574;BME280;11965;53.640;10.050;2023-09-12T08:38:47;101122.09;;;21.07;100.00
23574;BME280;11965;53.640;10.050;2023-09-12T08:41:14;101123.78;;;21.08;100.00
23574;BME280;11965;53.640;10.050;2023-09-12T08:43:41;101112.53;;;20.91;100.00
23574;BME280;11965;53.640;10.050;2023-09-12T08:46:10;101107.25;;;21.34;100.00
23574;BME280;11965;53.640;10.050;2023-09-12T08:48:38;101122.16;;;21.12;100.00
23574;BME280;11965;53.640;10.050;2023-09-12T08:51:08;101124.69;;;21.70;100.00
23574;BME280;11965;53.640;10.050;2023-09-12T08:53:38;101138.06;;;22.23;100.00
23574;BME280;11965;53.640;10.050;2023-09-12T08:56:06;101135.91;;;22.09;100.00
23574;BME280;11965;53.640;10.050;2023-09-12T08:58:35;101137.16;;;21.96;100.00
23574;BME280;11965;53.640;10.050;2023-09-12T09:01:02;101137.50;;;21.77;100.00
23574;BME280;11965;53.640;10.050;2023-09-12T09:03:30;101146.88;;;21.83;100.00
23574;BME280;11965;53.640;10.050;2023-09-12T09:05:57;101138.53;;;21.93;100.00
23574;BME280;11965;53.640;10.050;2023-09-12T09:08:28;101138.13;;;22.06;100.00
23574;BME280;11965;53.640;10.050;2023-09-12T09:10:56;101139.59;;;21.87;100.00
23574;BME280;11965;53.640;10.050;2023-09-12T09:13:25;101144.78;;;21.95;100.00
23574;BME280;11965;53.640;10.050;2023-09-12T09:16:10;101145.03;;;21.94;100.00
23574;BME280;11965;53.640;10.050;2023-09-12T09:18:52;101135.78;;;22.20;100.00
23574;BME280;11965;53.640;10.050;2023-09-12T09:21:21;101146.59;;;21.62;100.00
23574;BME280;11965;53.640;10.050;2023-09-12T09:23:50;101144.09;;;21.44;100.00
23574;BME280;11965;53.640;10.050;2023-09-12T09:26:18;101140.31;;;21.55;100.00
23574;BME280;11965;53.640;10.050;2023-09-12T09:29:01;101142.53;;;21.75;100.00
23574;BME280;11965;53.640;10.050;2023-09-12T09:31:28;101140.72;;;22.13;100.00
23574;BME280;11965;53.640;10.050;2023-09-12T09:33:58;101154.31;;;22.16;100.00
23574;BME280;11965;53.640;10.050;2023-09-12T09:36:26;101147.50;;;22.34;100.00
23574;BME280;11965;53.640;10.050;2023-09-12T09:38:53;101143.19;;;22.04;100.00
23574;BME280;11965;53.640;10.050;2023-09-12T09:41:20;101147.84;;;21.72;100.00
23574;BME280;11965;53.640;10.050;2023-09-12T09:43:51;101147.59;;;21.95;100.00
23574;BME280;11965;53.640;10.050;2023-09-12T09:46:18;101148.81;;;22.26;100.00
23574;BME280;11965;53.640;10.050;2023-09-12T09:48:49;101145.25;;;22.63;100.00
23574;BME280;11965;53.640;10.050;2023-09-12T09:51:16;101146.38;;;22.94;100.00
23574;BME280;11965;53.640;10.050;2023-09-12T09:53:43;101141.78;;;22.88;100.00
23574;BME280;11965;53.640;10.050;2023-09-12T09:56:12;101137.47;;;23.08;100.00
23574;BME280;11965;53.640;10.050;2023-09-12T09:58:46;101144.59;;;23.21;100.00
23574;BME280;11965;53.640;10.050;2023-09-12T10:01:18;101146.00;;;23.18;100.00
23574;BME280;11965;53.640;10.050;2023-09-12T10:03:46;101148.72;;;23.45;97.15
23574;BME280;11965;53.640;10.050;2023-09-12T10:06:16;101153.88;;;23.11;100.00
23574;BME280;11965;53.640;10.050;2023-09-12T10:08:44;101161.47;;;23.05;98.15
23574;BME280;11965;53.640;10.050;2023-09-12T10:11:14;101167.00;;;22.95;97.71
23574;BME280;11965;53.640;10.050;2023-09-12T10:13:46;101172.13;;;22.39;100.00
23574;BME280;11965;53.640;10.050;2023-09-12T10:16:17;101170.47;;;22.43;100.00
23574;BME280;11965;53.640;10.050;2023-09-12T10:18:57;101164.97;;;22.31;100.00
23574;BME280;11965;53.640;10.050;2023-09-12T10:21:29;101168.53;;;22.21;100.00
23574;BME280;11965;53.640;10.050;2023-09-12T10:23:59;101155.84;;;22.02;100.00
23574;BME280;11965;53.640;10.050;2023-09-12T10:26:26;101164.53;;;21.95;100.00
23574;BME280;11965;53.640;10.050;2023-09-12T10:28:54;101168.28;;;22.23;100.00
23574;BME280;11965;53.640;10.050;2023-09-12T10:31:24;101167.75;;;22.85;99.19
23574;BME280;11965;53.640;10.050;2023-09-12T10:33:51;101162.38;;;23.11;97.60
23574;BME280;11965;53.640;10.050;2023-09-12T10:36:20;101153.94;;;23.21;98.71
23574;BME280;11965;53.640;10.050;2023-09-12T10:38:48;101159.94;;;22.92;98.01
23574;BME280;11965;53.640;10.050;2023-09-12T10:41:16;101156.09;;;22.77;99.13
23574;BME280;11965;53.640;10.050;2023-09-12T10:43:44;101156.19;;;22.55;99.19
23574;BME280;11965;53.640;10.050;2023-09-12T10:46:15;101159.59;;;22.08;100.00
23574;BME280;11965;53.640;10.050;2023-09-12T10:48:44;101146.81;;;22.22;100.00
23574;BME280;11965;53.640;10.050;2023-09-12T10:51:12;101153.63;;;22.04;100.00
23574;BME280;11965;53.640;10.050;2023-09-12T10:53:45;101154.50;;;21.82;100.00
23574;BME280;11965;53.640;10.050;2023-09-12T10:56:17;101152.06;;;21.69;100.00
23574;BME280;11965;53.640;10.050;2023-09-12T10:59:09;101159.53;;;21.58;100.00
23574;BME280;11965;53.640;10.050;2023-09-12T11:01:39;101152.13;;;21.52;100.00
23574;BME280;11965;53.640;10.050;2023-09-12T11:04:37;101162.50;;;21.69;100.00
23574;BME280;11965;53.640;10.050;2023-09-12T11:07:32;101163.97;;;21.54;100.00
23574;BME280;11965;53.640;10.050;2023-09-12T11:10:19;101163.94;;;21.71;100.00
23574;BME280;11965;53.640;10.050;2023-09-12T11:12:47;101157.41;;;21.71;100.00
23574;BME280;11965;53.640;10.050;2023-09-12T11:15:15;101160.22;;;21.49;100.00
23574;BME280;11965;53.640;10.050;2023-09-12T11:17:43;101152.59;;;21.66;100.00
23574;BME280;11965;53.640;10.050;2023-09-12T11:20:13;101167.41;;;21.78;100.00
23574;BME280;11965;53.640;10.050;2023-09-12T11:22:41;101166.84;;;21.76;100.00
23574;BME280;11965;53.640;10.050;2023-09-12T11:25:19;101150.84;;;21.65;100.00
23574;BME280;11965;53.640;10.050;2023-09-12T11:28:09;101147.69;;;21.39;100.00
23574;BME280;11965;53.640;10.050;2023-09-12T11:30:36;101151.44;;;21.45;100.00
23574;BME280;11965;53.640;10.050;2023-09-12T11:33:04;101146.31;;;21.42;100.00
23574;BME280;11965;53.640;10.050;2023-09-12T11:35:37;101156.41;;;21.77;100.00
23574;BME280;11965;53.640;10.050;2023-09-12T11:38:10;101152.91;;;21.70;100.00
23574;BME280;11965;53.640;10.050;2023-09-12T11:40:44;101157.16;;;21.72;100.00
23574;BME280;11965;53.640;10.050;2023-09-12T11:43:20;101163.13;;;21.76;100.00
23574;BME280;11965;53.640;10.050;2023-09-12T11:45:49;101156.31;;;21.72;100.00
23574;BME280;11965;53.640;10.050;2023-09-12T11:50:49;101160.06;;;21.55;100.00
23574;BME280;11965;53.640;10.050;2023-09-12T11:53:20;101159.13;;;21.50;100.00
23574;BME280;11965;53.640;10.050;2023-09-12T11:55:50;101154.00;;;21.47;100.00
23574;BME280;11965;53.640;10.050;2023-09-12T11:58:19;101155.63;;;21.43;100.00
23574;BME280;11965;53.640;10.050;2023-09-12T12:00:47;101148.28;;;21.42;100.00
23574;BME280;11965;53.640;10.050;2023-09-12T12:03:15;101154.50;;;21.27;100.00
23574;BME280;11965;53.640;10.050;2023-09-12T12:05:42;101152.28;;;21.29;100.00
23574;BME280;11965;53.640;10.050;2023-09-12T12:08:11;101152.63;;;21.32;100.00
23574;BME280;11965;53.640;10.050;2023-09-12T12:10:38;101156.28;;;21.33;100.00
23574;BME280;11965;53.640;10.050;2023-09-12T12:13:06;101150.56;;;21.28;100.00
23574;BME280;11965;53.640;10.050;2023-09-12T12:15:37;101145.38;;;21.19;100.00
23574;BME280;11965;53.640;10.050;2023-09-12T12:18:04;101140.88;;;21.02;100.00
23574;BME280;11965;53.640;10.050;2023-09-12T12:20:31;101139.09;;;20.95;100.00
23574;BME280;11965;53.640;10.050;2023-09-12T12:22:58;101134.56;;;20.94;100.00
23574;BME280;11965;53.640;10.050;2023-09-12T12:25:26;101133.09;;;20.92;100.00
23574;BME280;11965;53.640;10.050;2023-09-12T12:27:53;101133.47;;;20.95;100.00
23574;BME280;11965;53.640;10.050;2023-09-12T12:30:20;101120.88;;;21.03;100.00
23574;BME280;11965;53.640;10.050;2023-09-12T12:32:47;101120.31;;;21.01;100.00
23574;BME280;11965;53.640;10.050;2023-09-12T12:35:18;101113.88;;;21.06;100.00
23574;BME280;11965;53.640;10.050;2023-09-12T12:37:45;101109.13;;;20.89;100.00
23574;BME280;11965;53.640;10.050;2023-09-12T12:40:15;101098.97;;;20.88;100.00